createdAt,value
2022-11-04T00:04:20.829Z,233.67
2022-11-04T00:14:24.667Z,231.90
2022-11-04T00:24:47.282Z,229.33
2022-11-04T00:34:50.751Z,227.47
2022-11-04T00:44:55.739Z,227.73
2022-11-04T00:54:59.152Z,234.13
2022-11-04T01:05:04.251Z,227.80
2022-11-04T01:15:08.841Z,228.70
2022-11-04T01:25:13.606Z,236.43
2022-11-04T01:35:17.278Z,233.30
2022-11-04T01:45:25.496Z,223.73
2022-11-04T01:55:33.334Z,221.80
2022-11-04T02:05:40.125Z,227.87
2022-11-04T02:15:53.117Z,226.50
2022-11-04T02:26:45.687Z,232.30
2022-11-04T02:37:03.208Z,229.27
2022-11-04T02:47:11.178Z,229.17
2022-11-04T02:57:22.733Z,227.87
2022-11-04T03:07:31.717Z,224.60
2022-11-04T03:17:43.305Z,226.57
2022-11-04T03:27:55.210Z,224.40
2022-11-04T03:38:00.647Z,226.93
2022-11-04T03:48:04.988Z,221.20
2022-11-04T03:58:20.133Z,220.20
2022-11-04T04:08:37.102Z,214.57
2022-11-04T04:18:45.978Z,216.47
2022-11-04T04:28:51.638Z,216.13
2022-11-04T04:39:14.747Z,221.23
2022-11-04T04:49:18.204Z,218.23
2022-11-04T04:59:23.005Z,213.43
2022-11-04T05:09:26.496Z,219.27
2022-11-04T05:19:31.315Z,220.17
2022-11-04T05:29:34.863Z,217.30
2022-11-04T05:39:39.702Z,218.17
2022-11-04T05:49:43.122Z,219.13
2022-11-04T05:59:47.972Z,228.03
2022-11-04T06:09:51.485Z,214.37
2022-11-04T06:19:56.316Z,215.07
2022-11-04T06:29:59.800Z,216.73
2022-11-04T06:40:05.192Z,218.77
2022-11-04T06:50:09.770Z,223.90
2022-11-04T07:00:16.208Z,222.53
2022-11-04T07:10:19.663Z,228.00
2022-11-04T07:20:24.451Z,226.03
2022-11-04T07:30:28.330Z,221.17
2022-11-04T07:40:34.492Z,218.33
2022-11-04T07:50:41.280Z,223.50
2022-11-04T08:00:46.092Z,219.40
2022-11-04T08:10:55.009Z,222.53
2022-11-04T08:20:59.980Z,214.90
2022-11-04T08:31:06.627Z,216.20
2022-11-04T08:41:13.319Z,218.60
2022-11-04T08:51:21.230Z,215.60
2022-11-04T09:01:35.274Z,218.50
2022-11-04T09:11:42.910Z,214.60
2022-11-04T09:21:47.813Z,214.73
2022-11-04T09:31:51.554Z,213.77
2022-11-04T09:42:22.566Z,207.20
2022-11-04T09:52:30.103Z,207.05
2022-11-04T10:02:53.875Z,211.57
2022-11-04T10:13:21.921Z,209.70
2022-11-04T10:23:33.885Z,210.32
2022-11-04T10:33:42.761Z,211.75
2022-11-04T10:43:49.306Z,206.27
2022-11-04T10:53:56.120Z,202.57
2022-11-04T11:04:03.861Z,212.07
2022-11-04T11:14:17.362Z,216.35
2022-11-04T11:24:24.434Z,223.70
2022-11-04T11:34:33.031Z,224.70
2022-11-04T11:44:44.536Z,222.77
2022-11-04T11:54:52.071Z,226.33
2022-11-04T12:15:35.558Z,229.57
2022-11-04T12:25:46.580Z,220.23
2022-11-04T12:36:11.126Z,233.73
2022-11-04T12:46:23.994Z,223.37
2022-11-04T12:56:37.666Z,225.73
2022-11-04T13:06:46.833Z,218.97
2022-11-04T13:16:53.064Z,219.00
2022-11-04T13:27:05.315Z,228.30
2022-11-04T13:37:19.529Z,220.13
2022-11-04T13:47:28.995Z,220.87
2022-11-04T13:57:53.572Z,225.23
2022-11-04T14:08:13.880Z,223.63
2022-11-04T14:18:30.586Z,232.30
2022-11-04T14:28:36.380Z,228.77
2022-11-04T14:38:42.401Z,224.50
2022-11-04T14:48:53.528Z,226.67
2022-11-04T14:59:00.265Z,223.43
2022-11-04T15:09:05.368Z,228.73
2022-11-04T15:19:10.576Z,224.80
2022-11-04T15:29:18.953Z,218.47
2022-11-04T15:39:24.869Z,217.17
2022-11-04T15:49:31.709Z,232.27
2022-11-04T15:59:38.581Z,230.70
2022-11-04T16:09:51.851Z,226.93
2022-11-04T16:19:59.984Z,230.93
2022-11-04T16:30:14.147Z,228.80
2022-11-04T16:40:18.707Z,226.37
2022-11-04T16:50:24.636Z,228.27
2022-11-04T17:00:32.206Z,230.93
2022-11-04T17:10:37.292Z,238.60
2022-11-04T17:20:42.274Z,239.97
2022-11-04T17:30:47.458Z,241.03
2022-11-04T17:41:08.411Z,229.87
2022-11-04T17:51:13.850Z,241.07
2022-11-04T18:01:20.562Z,241.47
2022-11-04T18:11:44.743Z,240.17
2022-11-04T18:21:49.156Z,242.67
2022-11-04T18:31:54.106Z,241.07
2022-11-04T18:41:57.540Z,251.77
2022-11-04T18:52:02.497Z,248.03
2022-11-04T19:02:06.886Z,254.23
2022-11-04T19:12:29.364Z,250.97
2022-11-04T19:22:32.805Z,251.63
2022-11-04T19:32:37.873Z,257.53
2022-11-04T19:42:58.987Z,253.47
2022-11-04T19:53:04.110Z,251.03
2022-11-04T20:03:07.649Z,262.00
2022-11-04T20:13:34.862Z,262.17
2022-11-04T20:23:38.756Z,257.20
2022-11-04T20:33:43.880Z,257.97
2022-11-04T20:43:49.100Z,264.80
2022-11-04T20:53:56.122Z,257.73
2022-11-04T21:04:02.714Z,269.40
2022-11-04T21:14:08.878Z,262.00
2022-11-04T21:24:15.160Z,252.47
2022-11-04T21:34:20.321Z,252.40
2022-11-04T21:44:23.930Z,244.87
2022-11-04T21:54:28.831Z,249.53
2022-11-04T22:04:32.476Z,252.17
2022-11-04T22:14:37.496Z,242.53
2022-11-04T22:24:40.886Z,247.30
2022-11-04T22:34:45.663Z,239.87
2022-11-04T22:44:49.083Z,241.37
2022-11-04T22:54:53.846Z,240.70
2022-11-04T23:04:57.278Z,244.00
2022-11-04T23:15:19.397Z,248.07
2022-11-04T23:25:23.043Z,245.73
2022-11-04T23:35:48.548Z,248.63
2022-11-04T23:46:11.141Z,243.13
2022-11-04T23:56:33.404Z,243.67
